sensor_id;sensor_type;location;lat;lon;timestamp;pressure;altitude;pressure_sealevel;temperature;humidity
7052;BME280;3567;52.444;13.556;2022-10-15T00:00:28;100533.00;;;12.73;100.00
7052;BME280;3567;52.444;13.556;2022-10-15T00:02:53;100531.41;;;12.72;100.00
7052;BME280;3567;52.444;13.556;2022-10-15T00:05:19;100535.16;;;12.71;100.00
7052;BME280;3567;52.444;13.556;2022-10-15T00:07:44;100535.16;;;12.71;100.00
7052;BME280;3567;52.444;13.556;2022-10-15T00:10:09;100539.47;;;12.72;100.00
7052;BME280;3567;52.444;13.556;2022-10-15T00:12:35;100532.47;;;12.71;100.00
7052;BME280;3567;52.444;13.556;2022-10-15T00:15:00;100525.22;;;12.71;100.00
7052;BME280;3567;52.444;13.556;2022-10-15T00:17:26;100520.66;;;12.72;100.00
7052;BME280;3567;52.444;13.556;2022-10-15T00:19:51;100516.88;;;12.73;100.00
7052;BME280;3567;52.444;13.556;2022-10-15T00:22:17;100513.38;;;12.72;100.00
7052;BME280;3567;52.444;13.556;2022-10-15T00:24:42;100504.28;;;12.73;100.00
7052;BME280;3567;52.444;13.556;2022-10-15T00:27:07;100505.09;;;12.74;100.00
7052;BME280;3567;52.444;13.556;2022-10-15T00:29:33;100497.03;;;12.74;100.00
7052;BME280;3567;52.444;13.556;2022-10-15T00:31:58;100499.72;;;12.74;100.00
7052;BME280;3567;52.444;13.556;2022-10-15T00:34:24;100494.09;;;12.75;100.00
7052;BME280;3567;52.444;13.556;2022-10-15T00:36:50;100500.28;;;12.76;100.00
7052;BME280;3567;52.444;13.556;2022-10-15T00:39:15;100493.28;;;12.75;100.00
7052;BME280;3567;52.444;13.556;2022-10-15T00:41:42;100490.00;;;12.73;100.00
7052;BME280;3567;52.444;13.556;2022-10-15T00:46:50;100490.84;;;12.73;100.00
7052;BME280;3567;52.444;13.556;2022-10-15T00:49:21;100488.41;;;12.72;100.00
7052;BME280;3567;52.444;13.556;2022-10-15T00:54:26;100494.28;;;12.69;100.00
7052;BME280;3567;52.444;13.556;2022-10-15T00:56:52;100489.97;;;12.68;100.00
7052;BME280;3567;52.444;13.556;2022-10-15T00:59:20;100491.59;;;12.69;100.00
7052;BME280;3567;52.444;13.556;2022-10-15T01:01:48;100482.94;;;12.67;100.00
7052;BME280;3567;52.444;13.556;2022-10-15T01:04:14;100477.56;;;12.67;100.00
7052;BME280;3567;52.444;13.556;2022-10-15T01:06:41;100464.41;;;12.65;100.00
7052;BME280;3567;52.444;13.556;2022-10-15T01:09:07;100458.75;;;12.67;100.00
7052;BME280;3567;52.444;13.556;2022-10-15T01:11:40;100463.09;;;12.68;100.00
7052;BME280;3567;52.444;13.556;2022-10-15T01:14:38;100456.06;;;12.67;100.00
7052;BME280;3567;52.444;13.556;2022-10-15T01:17:27;100450.69;;;12.67;100.00
7052;BME280;3567;52.444;13.556;2022-10-15T01:23:16;100442.91;;;12.65;100.00
7052;BME280;3567;52.444;13.556;2022-10-15T01:26:12;100445.59;;;12.65;100.00
7052;BME280;3567;52.444;13.556;2022-10-15T01:29:04;100440.47;;;12.64;100.00
7052;BME280;3567;52.444;13.556;2022-10-15T01:40:08;100428.66;;;12.65;100.00
7052;BME280;3567;52.444;13.556;2022-10-15T01:42:57;100425.16;;;12.64;100.00
7052;BME280;3567;52.444;13.556;2022-10-15T01:45:48;100432.16;;;12.65;100.00
7052;BME280;3567;52.444;13.556;2022-10-15T01:48:17;100429.22;;;12.67;100.00
7052;BME280;3567;52.444;13.556;2022-10-15T01:50:47;100432.47;;;12.69;100.00
7052;BME280;3567;52.444;13.556;2022-10-15T01:53:16;100423.59;;;12.68;100.00
7052;BME280;3567;52.444;13.556;2022-10-15T01:55:44;100415.53;;;12.68;100.00
7052;BME280;3567;52.444;13.556;2022-10-15T01:58:11;100416.34;;;12.69;100.00
7052;BME280;3567;52.444;13.556;2022-10-15T02:00:40;100416.34;;;12.69;100.00
7052;BME280;3567;52.444;13.556;2022-10-15T02:03:07;100421.22;;;12.72;100.00
7052;BME280;3567;52.444;13.556;2022-10-15T02:05:47;100418.53;;;12.72;100.00
7052;BME280;3567;52.444;13.556;2022-10-15T02:11:15;100404.28;;;12.71;100.00
7052;BME280;3567;52.444;13.556;2022-10-15T02:24:07;100385.19;;;12.73;100.00
7052;BME280;3567;52.444;13.556;2022-10-15T02:26:36;100385.47;;;12.71;100.00
7052;BME280;3567;52.444;13.556;2022-10-15T02:29:04;100388.16;;;12.71;100.00
7052;BME280;3567;52.444;13.556;2022-10-15T02:31:32;100383.59;;;12.72;100.00
7052;BME280;3567;52.444;13.556;2022-10-15T02:34:02;100389.47;;;12.69;100.00
7052;BME280;3567;52.444;13.556;2022-10-15T02:36:30;100392.72;;;12.71;100.00
7052;BME280;3567;52.444;13.556;2022-10-15T02:38:56;100384.91;;;12.69;100.00
7052;BME280;3567;52.444;13.556;2022-10-15T02:41:23;100390.56;;;12.73;100.00
7052;BME280;3567;52.444;13.556;2022-10-15T02:43:48;100389.53;;;12.74;100.00
7052;BME280;3567;52.444;13.556;2022-10-15T02:46:14;100391.97;;;12.75;100.00
7052;BME280;3567;52.444;13.556;2022-10-15T02:48:41;100387.94;;;12.78;100.00
7052;BME280;3567;52.444;13.556;2022-10-15T02:51:07;100372.66;;;12.78;100.00
7052;BME280;3567;52.444;13.556;2022-10-15T02:53:32;100376.97;;;12.79;100.00
7052;BME280;3567;52.444;13.556;2022-10-15T02:55:58;100378.59;;;12.80;100.00
7052;BME280;3567;52.444;13.556;2022-10-15T02:58:23;100371.34;;;12.81;100.00
7052;BME280;3567;52.444;13.556;2022-10-15T03:00:49;100378.31;;;12.82;100.00
7052;BME280;3567;52.444;13.556;2022-10-15T03:03:15;100378.31;;;12.82;100.00
7052;BME280;3567;52.444;13.556;2022-10-15T03:05:41;100377.50;;;12.81;100.00
7052;BME280;3567;52.444;13.556;2022-10-15T03:08:07;100370.25;;;12.82;100.00
7052;BME280;3567;52.444;13.556;2022-10-15T03:10:32;100362.19;;;12.82;100.00
7052;BME280;3567;52.444;13.556;2022-10-15T03:13:05;100371.34;;;12.81;100.00
7052;BME280;3567;52.444;13.556;2022-10-15T03:15:32;100365.16;;;12.80;100.00
7052;BME280;3567;52.444;13.556;2022-10-15T03:17:57;100365.97;;;12.81;100.00
7052;BME280;3567;52.444;13.556;2022-10-15T03:20:23;100374.03;;;12.81;100.00
7052;BME280;3567;52.444;13.556;2022-10-15T03:22:48;100375.91;;;12.80;100.00
7052;BME280;3567;52.444;13.556;2022-10-15T03:25:13;100372.94;;;12.82;100.00
7052;BME280;3567;52.444;13.556;2022-10-15T03:27:39;100366.75;;;12.81;100.00
7052;BME280;3567;52.444;13.556;2022-10-15T03:30:04;100366.50;;;12.83;100.00
7052;BME280;3567;52.444;13.556;2022-10-15T03:32:30;100358.97;;;12.80;100.00
7052;BME280;3567;52.444;13.556;2022-10-15T03:34:55;100351.97;;;12.79;100.00
7052;BME280;3567;52.444;13.556;2022-10-15T03:37:21;100344.41;;;12.76;100.00
7052;BME280;3567;52.444;13.556;2022-10-15T03:39:46;100349.22;;;12.74;100.00
7052;BME280;3567;52.444;13.556;2022-10-15T03:42:11;100345.41;;;12.70;100.00
7052;BME280;3567;52.444;13.556;2022-10-15T03:44:37;100344.03;;;12.67;100.00
7052;BME280;3567;52.444;13.556;2022-10-15T03:47:02;100349.66;;;12.66;100.00
7052;BME280;3567;52.444;13.556;2022-10-15T03:49:27;100349.09;;;12.64;100.00
7052;BME280;3567;52.444;13.556;2022-10-15T03:51:53;100347.50;;;12.63;100.00
7052;BME280;3567;52.444;13.556;2022-10-15T03:54:18;100345.03;;;12.61;100.00
7052;BME280;3567;52.444;13.556;2022-10-15T03:56:43;100341.00;;;12.58;100.00
7052;BME280;3567;52.444;13.556;2022-10-15T03:59:09;100354.69;;;12.57;100.00
7052;BME280;3567;52.444;13.556;2022-10-15T04:01:34;100341.00;;;12.58;100.00
7052;BME280;3567;52.444;13.556;2022-10-15T04:03:59;100353.84;;;12.56;100.00
7052;BME280;3567;52.444;13.556;2022-10-15T04:06:25;100349.53;;;12.55;100.00
7052;BME280;3567;52.444;13.556;2022-10-15T04:08:50;100362.97;;;12.55;100.00
7052;BME280;3567;52.444;13.556;2022-10-15T04:11:15;100355.50;;;12.57;100.00
7052;BME280;3567;52.444;13.556;2022-10-15T04:13:41;100360.34;;;12.61;100.00
7052;BME280;3567;52.444;13.556;2022-10-15T04:16:06;100351.78;;;12.64;100.00
7052;BME280;3567;52.444;13.556;2022-10-15T04:18:32;100357.72;;;12.66;100.00
7052;BME280;3567;52.444;13.556;2022-10-15T04:21:00;100355.59;;;12.68;100.00
7052;BME280;3567;52.444;13.556;2022-10-15T04:23:26;100351.59;;;12.70;100.00
7052;BME280;3567;52.444;13.556;2022-10-15T04:25:52;100359.41;;;12.72;100.00
7052;BME280;3567;52.444;13.556;2022-10-15T04:28:17;100350.25;;;12.73;100.00
7052;BME280;3567;52.444;13.556;2022-10-15T04:30:43;100350.03;;;12.74;100.00
7052;BME280;3567;52.444;13.556;2022-10-15T04:33:08;100350.84;;;12.75;100.00
7052;BME280;3567;52.444;13.556;2022-10-15T04:35:33;100347.56;;;12.73;100.00
7052;BME280;3567;52.444;13.556;2022-10-15T04:37:59;100354.28;;;12.70;100.00
7052;BME280;3567;52.444;13.556;2022-10-15T04:40:25;100353.47;;;12.70;100.00
7052;BME280;3567;52.444;13.556;2022-10-15T04:42:50;100353.16;;;12.66;100.00
7052;BME280;3567;52.444;13.556;2022-10-15T04:45:16;100359.34;;;12.67;100.00
7052;BME280;3567;52.444;13.556;2022-10-15T04:47:41;100369.03;;;12.68;100.00
7052;BME280;3567;52.444;13.556;2022-10-15T04:50:06;100360.16;;;12.67;100.00
7052;BME280;3567;52.444;13.556;2022-10-15T04:52:33;100362.59;;;12.69;100.00
7052;BME280;3567;52.444;13.556;2022-10-15T04:54:58;100351.84;;;12.69;100.00
7052;BME280;3567;52.444;13.556;2022-10-15T04:57:24;100357.22;;;12.69;100.00
7052;BME280;3567;52.444;13.556;2022-10-15T04:59:50;100360.41;;;12.66;100.00
7052;BME280;3567;52.444;13.556;2022-10-15T05:02:17;100366.84;;;12.65;100.00
7052;BME280;3567;52.444;13.556;2022-10-15T05:04:42;100375.97;;;12.64;100.00
7052;BME280;3567;52.444;13.556;2022-10-15T05:07:08;100372.72;;;12.62;100.00
7052;BME280;3567;52.444;13.556;2022-10-15T05:09:33;100364.91;;;12.60;100.00
7052;BME280;3567;52.444;13.556;2022-10-15T05:11:59;100372.66;;;12.56;100.00
7052;BME280;3567;52.444;13.556;2022-10-15T05:14:24;100364.03;;;12.54;100.00
7052;BME280;3567;52.444;13.556;2022-10-15T05:16:49;100366.72;;;12.54;100.00
7052;BME280;3567;52.444;13.556;2022-10-15T05:19:15;100368.88;;;12.52;100.00
7052;BME280;3567;52.444;13.556;2022-10-15T05:21:42;100358.94;;;12.53;100.00
7052;BME280;3567;52.444;13.556;2022-10-15T05:24:08;100365.09;;;12.53;100.00
7052;BME280;3567;52.444;13.556;2022-10-15T05:26:34;100363.22;;;12.54;100.00
7052;BME280;3567;52.444;13.556;2022-10-15T05:29:00;100362.16;;;12.55;100.00
7052;BME280;3567;52.444;13.556;2022-10-15T05:31:28;100364.03;;;12.54;100.00
7052;BME280;3567;52.444;13.556;2022-10-15T05:33:54;100358.94;;;12.53;100.00
7052;BME280;3567;52.444;13.556;2022-10-15T05:38:54;100377.97;;;12.51;100.00
7052;BME280;3567;52.444;13.556;2022-10-15T05:41:20;100383.34;;;12.51;100.00
7052;BME280;3567;52.444;13.556;2022-10-15T05:43:47;100377.41;;;12.49;100.00
7052;BME280;3567;52.444;13.556;2022-10-15T05:46:13;100385.47;;;12.49;100.00
7052;BME280;3567;52.444;13.556;2022-10-15T05:48:39;100384.66;;;12.49;100.00
7052;BME280;3567;52.444;13.556;2022-10-15T05:51:07;100387.59;;;12.47;100.00
7052;BME280;3567;52.444;13.556;2022-10-15T05:53:33;100387.59;;;12.47;100.00
7052;BME280;3567;52.444;13.556;2022-10-15T05:55:58;100385.94;;;12.46;100.00
7052;BME280;3567;52.444;13.556;2022-10-15T05:58:25;100386.47;;;12.43;100.00
7052;BME280;3567;52.444;13.556;2022-10-15T06:00:58;100392.91;;;12.42;100.00
7052;BME280;3567;52.444;13.556;2022-10-15T06:03:24;100398.28;;;12.42;100.00
7052;BME280;3567;52.444;13.556;2022-10-15T06:05:49;100389.97;;;12.44;100.00
7052;BME280;3567;52.444;13.556;2022-10-15T06:08:15;100399.72;;;12.50;100.00
7052;BME280;3567;52.444;13.556;2022-10-15T06:10:41;100400.59;;;12.55;100.00
7052;BME280;3567;52.444;13.556;2022-10-15T06:13:07;100404.72;;;12.63;100.00
7052;BME280;3567;52.444;13.556;2022-10-15T06:15:32;100402.97;;;12.74;100.00
7052;BME280;3567;52.444;13.556;2022-10-15T06:17:59;100407.34;;;12.80;100.00
7052;BME280;3567;52.444;13.556;2022-10-15T06:20:24;100410.59;;;12.82;100.00
7052;BME280;3567;52.444;13.556;2022-10-15T06:22:50;100414.41;;;12.86;100.00
7052;BME280;3567;52.444;13.556;2022-10-15T06:25:15;100412.03;;;12.90;100.00
7052;BME280;3567;52.444;13.556;2022-10-15T06:27:41;100413.72;;;12.96;100.00
7052;BME280;3567;52.444;13.556;2022-10-15T06:30:07;100409.19;;;13.01;100.00
7052;BME280;3567;52.444;13.556;2022-10-15T06:32:33;100414.09;;;13.09;100.00
7052;BME280;3567;52.444;13.556;2022-10-15T06:34:58;100410.44;;;13.16;100.00
7052;BME280;3567;52.444;13.556;2022-10-15T06:37:24;100418.53;;;13.21;100.00
7052;BME280;3567;52.444;13.556;2022-10-15T06:39:49;100413.50;;;13.24;100.00
7052;BME280;3567;52.444;13.556;2022-10-15T06:42:15;100418.88;;;13.24;100.00
7052;BME280;3567;52.444;13.556;2022-10-15T06:44:40;100419.19;;;13.28;100.00
7052;BME280;3567;52.444;13.556;2022-10-15T06:47:06;100425.63;;;13.27;100.00
7052;BME280;3567;52.444;13.556;2022-10-15T06:49:31;100420.81;;;13.29;100.00
7052;BME280;3567;52.444;13.556;2022-10-15T06:51:57;100427.81;;;13.30;100.00
7052;BME280;3567;52.444;13.556;2022-10-15T06:54:23;100432.69;;;13.33;100.00
7052;BME280;3567;52.444;13.556;2022-10-15T06:56:49;100427.91;;;13.40;100.00
7052;BME280;3567;52.444;13.556;2022-10-15T06:59:15;100433.88;;;13.47;100.00
7052;BME280;3567;52.444;13.556;2022-10-15T07:01:40;100440.44;;;13.56;100.00
7052;BME280;3567;52.444;13.556;2022-10-15T07:04:06;100441.06;;;13.69;100.00
7052;BME280;3567;52.444;13.556;2022-10-15T07:06:33;100448.69;;;13.77;100.00
7052;BME280;3567;52.444;13.556;2022-10-15T07:09:00;100450.88;;;13.80;100.00
7052;BME280;3567;52.444;13.556;2022-10-15T07:11:26;100447.38;;;13.84;100.00
7052;BME280;3567;52.444;13.556;2022-10-15T07:13:51;100456.38;;;13.95;100.00
7052;BME280;3567;52.444;13.556;2022-10-15T07:16:17;100466.41;;;14.05;100.00
7052;BME280;3567;52.444;13.556;2022-10-15T07:18:43;100461.88;;;14.10;100.00
7052;BME280;3567;52.444;13.556;2022-10-15T07:21:09;100465.97;;;14.18;100.00
7052;BME280;3567;52.444;13.556;2022-10-15T07:23:34;100474.66;;;14.30;100.00
7052;BME280;3567;52.444;13.556;2022-10-15T07:26:00;100475.03;;;14.44;100.00
7052;BME280;3567;52.444;13.556;2022-10-15T07:28:25;100468.13;;;14.58;100.00
7052;BME280;3567;52.444;13.556;2022-10-15T07:30:51;100473.06;;;14.72;100.00
7052;BME280;3567;52.444;13.556;2022-10-15T07:33:17;100463.91;;;14.78;100.00
7052;BME280;3567;52.444;13.556;2022-10-15T07:35:43;100452.88;;;14.84;100.00
7052;BME280;3567;52.444;13.556;2022-10-15T07:38:08;100459.09;;;14.90;100.00
7052;BME280;3567;52.444;13.556;2022-10-15T07:40:33;100454.81;;;14.94;100.00
7052;BME280;3567;52.444;13.556;2022-10-15T07:42:59;100454.53;;;14.96;100.00
7052;BME280;3567;52.444;13.556;2022-10-15T07:45:25;100456.44;;;15.00;100.00
7052;BME280;3567;52.444;13.556;2022-10-15T07:47:51;100462.69;;;15.06;100.00
7052;BME280;3567;52.444;13.556;2022-10-15T07:50:17;100466.19;;;15.06;100.00
7052;BME280;3567;52.444;13.556;2022-10-15T07:52:43;100460.78;;;15.06;100.00
7052;BME280;3567;52.444;13.556;2022-10-15T07:55:09;100459.69;;;15.07;100.00
7052;BME280;3567;52.444;13.556;2022-10-15T07:57:34;100458.38;;;15.10;100.00
7052;BME280;3567;52.444;13.556;2022-10-15T08:00:00;100468.91;;;15.16;100.00
7052;BME280;3567;52.444;13.556;2022-10-15T08:02:25;100461.41;;;15.24;100.00
7052;BME280;3567;52.444;13.556;2022-10-15T08:04:51;100467.63;;;15.29;100.00
7052;BME280;3567;52.444;13.556;2022-10-15T08:07:16;100467.34;;;15.36;100.00
7052;BME280;3567;52.444;13.556;2022-10-15T08:09:42;100463.06;;;15.40;100.00
7052;BME280;3567;52.444;13.556;2022-10-15T08:12:07;100457.66;;;15.45;100.00
7052;BME280;3567;52.444;13.556;2022-10-15T08:14:34;100461.19;;;15.56;100.00
7052;BME280;3567;52.444;13.556;2022-10-15T08:17:00;100459.34;;;15.66;100.00
7052;BME280;3567;52.444;13.556;2022-10-15T08:19:26;100462.31;;;15.75;100.00
7052;BME280;3567;52.444;13.556;2022-10-15T08:21:51;100460.41;;;15.86;100.00
7052;BME280;3567;52.444;13.556;2022-10-15T08:24:17;100464.72;;;15.97;100.00
7052;BME280;3567;52.444;13.556;2022-10-15T08:26:42;100467.72;;;16.06;100.00
7052;BME280;3567;52.444;13.556;2022-10-15T08:29:09;100467.13;;;16.19;100.00
7052;BME280;3567;52.444;13.556;2022-10-15T08:31:34;100472.00;;;16.32;100.00
7052;BME280;3567;52.444;13.556;2022-10-15T08:34:01;100481.19;;;16.41;100.00
7052;BME280;3567;52.444;13.556;2022-10-15T08:36:26;100480.06;;;16.53;100.00
7052;BME280;3567;52.444;13.556;2022-10-15T08:38:52;100477.59;;;16.66;100.00
7052;BME280;3567;52.444;13.556;2022-10-15T08:41:31;100480.03;;;16.78;100.00
7052;BME280;3567;52.444;13.556;2022-10-15T08:44:00;100475.66;;;16.82;100.00
7052;BME280;3567;52.444;13.556;2022-10-15T08:46:39;100487.25;;;16.93;100.00
7052;BME280;3567;52.444;13.556;2022-10-15T08:49:09;100478.28;;;17.08;100.00
7052;BME280;3567;52.444;13.556;2022-10-15T08:51:40;100473.09;;;17.21;99.99
7052;BME280;3567;52.444;13.556;2022-10-15T08:54:12;100473.03;;;17.32;99.52
7052;BME280;3567;52.444;13.556;2022-10-15T08:56:43;100486.22;;;17.43;98.37
7052;BME280;3567;52.444;13.556;2022-10-15T08:59:37;100485.00;;;17.65;97.83
7052;BME280;3567;52.444;13.556;2022-10-15T09:02:22;100488.41;;;17.86;96.55
7052;BME280;3567;52.444;13.556;2022-10-15T09:05:02;100488.78;;;18.03;95.88
7052;BME280;3567;52.444;13.556;2022-10-15T09:07:41;100496.38;;;18.06;94.48
7052;BME280;3567;52.444;13.556;2022-10-15T09:15:20;100497.22;;;17.57;95.46
7052;BME280;3567;52.444;13.556;2022-10-15T09:17:48;100496.25;;;17.43;96.09
7052;BME280;3567;52.444;13.556;2022-10-15T09:20:18;100492.53;;;17.28;95.76
7052;BME280;3567;52.444;13.556;2022-10-15T09:22:44;100501.75;;;17.22;96.39
7052;BME280;3567;52.444;13.556;2022-10-15T09:25:18;100501.22;;;17.20;96.35
7052;BME280;3567;52.444;13.556;2022-10-15T09:27:46;100505.84;;;17.15;96.25
7052;BME280;3567;52.444;13.556;2022-10-15T09:33:57;100501.56;;;17.03;97.53
7052;BME280;3567;52.444;13.556;2022-10-15T09:42:04;100499.53;;;17.35;97.50
7052;BME280;3567;52.444;13.556;2022-10-15T09:44:36;100498.03;;;17.58;96.48
7052;BME280;3567;52.444;13.556;2022-10-15T09:47:14;100498.50;;;17.70;95.50
7052;BME280;3567;52.444;13.556;2022-10-15T09:49:40;100510.69;;;17.67;95.13
7052;BME280;3567;52.444;13.556;2022-10-15T09:54:50;100512.16;;;17.49;95.15
7052;BME280;3567;52.444;13.556;2022-10-15T09:57:21;100504.56;;;17.51;95.34
7052;BME280;3567;52.444;13.556;2022-10-15T09:59:52;100510.69;;;17.67;94.56
7052;BME280;3567;52.444;13.556;2022-10-15T10:02:19;100510.44;;;17.74;95.09
7052;BME280;3567;52.444;13.556;2022-10-15T10:04:44;100506.34;;;17.76;94.67
7052;BME280;3567;52.444;13.556;2022-10-15T10:07:36;100510.41;;;17.79;94.79
7052;BME280;3567;52.444;13.556;2022-10-15T10:10:24;100505.81;;;17.74;94.72
7052;BME280;3567;52.444;13.556;2022-10-15T10:12:52;100509.59;;;17.68;94.31
7052;BME280;3567;52.444;13.556;2022-10-15T10:17:55;100518.34;;;17.60;95.15
7052;BME280;3567;52.444;13.556;2022-10-15T10:20:28;100515.88;;;17.64;95.17
7052;BME280;3567;52.444;13.556;2022-10-15T10:23:02;100518.81;;;17.67;95.16
7052;BME280;3567;52.444;13.556;2022-10-15T10:25:44;100523.66;;;17.80;94.60
7052;BME280;3567;52.444;13.556;2022-10-15T10:30:38;100518.47;;;18.18;93.66
7052;BME280;3567;52.444;13.556;2022-10-15T10:33:04;100519.25;;;18.24;92.88
7052;BME280;3567;52.444;13.556;2022-10-15T10:35:49;100523.56;;;18.25;91.81
7052;BME280;3567;52.444;13.556;2022-10-15T10:38:21;100524.66;;;18.24;92.51
7052;BME280;3567;52.444;13.556;2022-10-15T10:40:55;100516.19;;;18.59;92.32
7052;BME280;3567;52.444;13.556;2022-10-15T10:43:27;100521.03;;;19.34;90.80
7052;BME280;3567;52.444;13.556;2022-10-15T10:46:05;100522.06;;;19.57;87.30
7052;BME280;3567;52.444;13.556;2022-10-15T10:53:35;100515.44;;;19.07;87.30
7052;BME280;3567;52.444;13.556;2022-10-15T10:56:03;100523.09;;;19.00;88.32
7052;BME280;3567;52.444;13.556;2022-10-15T10:58:32;100526.09;;;18.98;88.39
7052;BME280;3567;52.444;13.556;2022-10-15T11:00:58;100522.66;;;18.93;87.92
7052;BME280;3567;52.444;13.556;2022-10-15T11:03:44;100521.59;;;18.89;88.47
7052;BME280;3567;52.444;13.556;2022-10-15T11:06:35;100528.63;;;18.90;87.40
7052;BME280;3567;52.444;13.556;2022-10-15T11:14:54;100526.91;;;18.99;87.62
7052;BME280;3567;52.444;13.556;2022-10-15T11:17:40;100524.66;;;19.06;87.61
7052;BME280;3567;52.444;13.556;2022-10-15T11:20:20;100523.22;;;19.14;87.17
7052;BME280;3567;52.444;13.556;2022-10-15T11:22:53;100518.22;;;19.21;87.23
7052;BME280;3567;52.444;13.556;2022-10-15T11:34:05;100508.28;;;20.24;82.44
7052;BME280;3567;52.444;13.556;2022-10-15T11:42:19;100504.75;;;21.11;80.31
7052;BME280;3567;52.444;13.556;2022-10-15T11:48:12;100501.56;;;21.45;75.96
7052;BME280;3567;52.444;13.556;2022-10-15T11:50:45;100501.47;;;21.23;77.17
7052;BME280;3567;52.444;13.556;2022-10-15T11:53:35;100503.53;;;20.76;77.60
7052;BME280;3567;52.444;13.556;2022-10-15T11:56:20;100503.56;;;20.44;79.61
7052;BME280;3567;52.444;13.556;2022-10-15T11:58:51;100494.25;;;20.50;80.02
7052;BME280;3567;52.444;13.556;2022-10-15T12:01:24;100500.44;;;20.36;80.01
7052;BME280;3567;52.444;13.556;2022-10-15T12:03:59;100495.69;;;20.28;80.91
7052;BME280;3567;52.444;13.556;2022-10-15T12:06:34;100490.59;;;20.40;80.54
7052;BME280;3567;52.444;13.556;2022-10-15T12:09:02;100502.31;;;20.55;78.97
7052;BME280;3567;52.444;13.556;2022-10-15T12:11:44;100500.03;;;20.43;79.18
7052;BME280;3567;52.444;13.556;2022-10-15T12:17:07;100496.09;;;19.89;80.14
7052;BME280;3567;52.444;13.556;2022-10-15T12:19:40;100498.56;;;20.04;81.10
7052;BME280;3567;52.444;13.556;2022-10-15T12:22:08;100490.16;;;20.33;80.62
7052;BME280;3567;52.444;13.556;2022-10-15T12:32:45;100503.44;;;19.88;79.98
7052;BME280;3567;52.444;13.556;2022-10-15T12:37:41;100505.91;;;19.28;82.38
7052;BME280;3567;52.444;13.556;2022-10-15T12:40:29;100511.44;;;18.99;83.92
7052;BME280;3567;52.444;13.556;2022-10-15T12:43:10;100510.13;;;18.97;84.69
7052;BME280;3567;52.444;13.556;2022-10-15T12:45:54;100510.56;;;19.04;84.66
7052;BME280;3567;52.444;13.556;2022-10-15T12:48:30;100504.38;;;18.98;84.51
7052;BME280;3567;52.444;13.556;2022-10-15T12:53:44;100506.03;;;18.75;85.00
7052;BME280;3567;52.444;13.556;2022-10-15T13:16:28;100495.00;;;18.38;86.96
7052;BME280;3567;52.444;13.556;2022-10-15T13:18:55;100493.41;;;18.31;87.53
7052;BME280;3567;52.444;13.556;2022-10-15T13:21:23;100485.31;;;18.26;87.98
7052;BME280;3567;52.444;13.556;2022-10-15T13:24:09;100495.09;;;18.27;88.02
7052;BME280;3567;52.444;13.556;2022-10-15T13:26:35;100491.84;;;18.25;87.41
7052;BME280;3567;52.444;13.556;2022-10-15T13:29:00;100491.63;;;18.22;87.65
7052;BME280;3567;52.444;13.556;2022-10-15T13:31:31;100503.03;;;18.19;87.73
7052;BME280;3567;52.444;13.556;2022-10-15T13:34:11;100494.88;;;18.19;87.50
7052;BME280;3567;52.444;13.556;2022-10-15T13:36:38;100498.41;;;18.19;87.21
7052;BME280;3567;52.444;13.556;2022-10-15T13:44:34;100490.22;;;18.24;87.83
7052;BME280;3567;52.444;13.556;2022-10-15T13:46:59;100490.53;;;18.23;88.38
7052;BME280;3567;52.444;13.556;2022-10-15T13:49:25;100492.19;;;18.19;88.27
7052;BME280;3567;52.444;13.556;2022-10-15T13:51:52;100491.38;;;18.18;89.30
7052;BME280;3567;52.444;13.556;2022-10-15T13:54:27;100496.78;;;18.18;89.18
7052;BME280;3567;52.444;13.556;2022-10-15T13:56:56;100494.59;;;18.20;88.92
7052;BME280;3567;52.444;13.556;2022-10-15T13:59:25;100499.16;;;18.25;89.66
7052;BME280;3567;52.444;13.556;2022-10-15T14:01:55;100494.50;;;18.30;89.78
7052;BME280;3567;52.444;13.556;2022-10-15T14:04:25;100492.50;;;18.41;89.52
7052;BME280;3567;52.444;13.556;2022-10-15T14:06:52;100495.63;;;18.53;88.58
7052;BME280;3567;52.444;13.556;2022-10-15T14:09:40;100502.84;;;18.63;88.93
7052;BME280;3567;52.444;13.556;2022-10-15T14:12:07;100497.22;;;18.59;88.98
7052;BME280;3567;52.444;13.556;2022-10-15T14:14:38;100498.63;;;18.52;88.33
7052;BME280;3567;52.444;13.556;2022-10-15T14:17:10;100496.56;;;18.44;88.98
7052;BME280;3567;52.444;13.556;2022-10-15T14:19:46;100495.31;;;18.31;89.96
7052;BME280;3567;52.444;13.556;2022-10-15T14:22:20;100497.91;;;18.17;90.33
7052;BME280;3567;52.444;13.556;2022-10-15T14:24:50;100494.16;;;18.08;90.68
7052;BME280;3567;52.444;13.556;2022-10-15T14:27:19;100501.25;;;18.04;90.73
7052;BME280;3567;52.444;13.556;2022-10-15T14:29:50;100493.13;;;18.04;91.70
7052;BME280;3567;52.444;13.556;2022-10-15T14:32:30;100498.03;;;18.02;91.84
7052;BME280;3567;52.444;13.556;2022-10-15T14:34:56;100491.75;;;18.06;91.66
7052;BME280;3567;52.444;13.556;2022-10-15T14:42:43;100491.94;;;18.15;91.72
7052;BME280;3567;52.444;13.556;2022-10-15T14:45:30;100497.44;;;18.05;92.17
7052;BME280;3567;52.444;13.556;2022-10-15T14:47:56;100492.09;;;17.95;91.77
7052;BME280;3567;52.444;13.556;2022-10-15T14:50:26;100503.03;;;17.85;92.23
7052;BME280;3567;52.444;13.556;2022-10-15T14:52:54;100504.97;;;17.79;92.72
7052;BME280;3567;52.444;13.556;2022-10-15T14:57:48;100507.16;;;17.72;93.51
7052;BME280;3567;52.444;13.556;2022-10-15T15:00:26;100512.31;;;17.68;94.15
7052;BME280;3567;52.444;13.556;2022-10-15T15:02:54;100507.44;;;17.70;93.96
7052;BME280;3567;52.444;13.556;2022-10-15T15:05:23;100507.72;;;17.74;93.83
7052;BME280;3567;52.444;13.556;2022-10-15T15:07:49;100504.44;;;17.72;93.44
7052;BME280;3567;52.444;13.556;2022-10-15T15:10:14;100505.28;;;17.67;93.77
7052;BME280;3567;52.444;13.556;2022-10-15T15:12:45;100509.69;;;17.58;93.64
7052;BME280;3567;52.444;13.556;2022-10-15T15:15:14;100509.19;;;17.51;93.43